Time;durP1;ratioP1;P1;durP2;ratioP2;P2;SDS_P1;SDS_P2;PMS_P1;PMS_P2;Temp;Humidity;BMP_temperature;BMP_pressure;BME280_temperature;BME280_humidity;BME280_pressure;Samples;Min_cycle;Max_cycle;Signal;HPM_P1;HPM_P2
2021/06/27 00:00:13;;;;;;;14.93;9.27;;;;;;;;;;5071048;28;20291;-65
2021/06/27 00:02:38;;;;;;;17.27;9.50;;;;;;;;;;5055905;28;20028;-64
2021/06/27 00:05:04;;;;;;;13.75;9.70;;;;;;;;;;5068065;28;20119;-65
2021/06/27 00:07:29;;;;;;;15.23;9.60;;;;;;;;;;5056164;22;20111;-91
2021/06/27 00:09:55;;;;;;;17.45;11.70;;;;;;;;;;4999105;28;20030;-91
2021/06/27 00:12:40;;;;;;;17.23;9.82;;;;;;;;;;4988019;28;20027;-90
2021/06/27 00:15:14;;;;;;;15.07;9.88;;;;;;;;;;5004630;28;20030;-91
2021/06/27 00:17:39;;;;;;;13.30;9.27;;;;;;;;;;4982280;28;20023;-91
2021/06/27 00:20:06;;;;;;;16.90;9.95;;;;;;;;;;4994715;28;20037;-92
2021/06/27 00:22:41;;;;;;;14.65;9.57;;;;;;;;;;4988138;28;20479;-90
2021/06/27 00:25:08;;;;;;;16.23;10.18;;;;;;;;;;4982225;28;20034;-91
2021/06/27 00:27:33;;;;;;;15.35;9.40;;;;;;;;;;4981580;28;20049;-91
2021/06/27 00:29:59;;;;;;;17.02;9.25;;;;;;;;;;4989890;28;20019;-91
2021/06/27 00:32:26;;;;;;;13.00;9.93;;;;;;;;;;5001146;28;20026;-92
2021/06/27 00:34:55;;;;;;;16.92;10.52;;;;;;;;;;4999164;28;20096;-90
2021/06/27 00:37:20;;;;;;;14.70;9.15;;;;;;;;;;4998108;28;20024;-91
2021/06/27 00:39:45;;;;;;;18.52;10.00;;;;;;;;;;4998581;28;20042;-90
2021/06/27 00:42:10;;;;;;;15.68;9.38;;;;;;;;;;5000095;28;20022;-91
2021/06/27 00:44:36;;;;;;;14.65;9.77;;;;;;;;;;5005069;28;20014;-93
2021/06/27 00:47:01;;;;;;;17.65;11.77;;;;;;;;;;4997567;28;20023;-93
2021/06/27 00:49:26;;;;;;;18.70;9.93;;;;;;;;;;5011928;28;20030;-92
2021/06/27 00:51:51;;;;;;;16.27;9.63;;;;;;;;;;4992514;28;20026;-91
2021/06/27 00:54:16;;;;;;;17.95;10.38;;;;;;;;;;4991549;28;20323;-91
2021/06/27 00:56:44;;;;;;;15.17;9.90;;;;;;;;;;4998657;28;20026;-90
2021/06/27 00:59:10;;;;;;;16.08;10.20;;;;;;;;;;4982464;28;20267;-91
2021/06/27 01:01:35;;;;;;;15.82;9.85;;;;;;;;;;4981197;28;20098;-91
2021/06/27 01:04:00;;;;;;;14.60;9.43;;;;;;;;;;4988132;28;20031;-91
2021/06/27 01:06:25;;;;;;;14.77;10.30;;;;;;;;;;4998793;28;20075;-92
2021/06/27 01:08:51;;;;;;;20.05;10.82;;;;;;;;;;4998749;28;20031;-91
2021/06/27 01:11:16;;;;;;;15.70;10.18;;;;;;;;;;4995740;28;20019;-91
2021/06/27 01:13:48;;;;;;;14.80;9.95;;;;;;;;;;4987228;28;20092;-91
2021/06/27 01:16:25;;;;;;;18.75;11.05;;;;;;;;;;4979309;28;20105;-91
2021/06/27 01:18:54;;;;;;;14.15;10.35;;;;;;;;;;4994735;28;20018;-92
2021/06/27 01:21:25;;;;;;;16.33;10.13;;;;;;;;;;4994107;28;20034;-91
2021/06/27 01:23:50;;;;;;;19.80;11.73;;;;;;;;;;4997831;28;20098;-91
2021/06/27 01:26:25;;;;;;;15.10;10.00;;;;;;;;;;4996946;28;20052;-91
2021/06/27 01:28:52;;;;;;;17.73;11.00;;;;;;;;;;4998209;28;20030;-90
2021/06/27 01:31:17;;;;;;;18.35;10.32;;;;;;;;;;4980548;28;20457;-92
2021/06/27 01:33:46;;;;;;;15.23;11.05;;;;;;;;;;4994444;28;20022;-90
2021/06/27 01:36:12;;;;;;;17.20;11.05;;;;;;;;;;4998150;28;20018;-91
2021/06/27 01:38:37;;;;;;;16.05;11.15;;;;;;;;;;4991780;28;20029;-91
2021/06/27 01:41:04;;;;;;;13.95;9.63;;;;;;;;;;4997596;28;20100;-91
2021/06/27 01:43:29;;;;;;;16.13;12.85;;;;;;;;;;4998208;28;20031;-91
2021/06/27 01:45:56;;;;;;;16.08;11.55;;;;;;;;;;4996040;28;20089;-91
2021/06/27 01:48:21;;;;;;;20.55;11.98;;;;;;;;;;4997707;28;20023;-90
2021/06/27 01:50:48;;;;;;;18.55;10.70;;;;;;;;;;4987227;28;20554;-91
2021/06/27 01:53:15;;;;;;;15.80;10.43;;;;;;;;;;4995111;28;20022;-91
2021/06/27 01:55:41;;;;;;;19.63;10.80;;;;;;;;;;4998266;28;20022;-91
2021/06/27 01:58:06;;;;;;;21.20;11.02;;;;;;;;;;4991082;28;20026;-90
2021/06/27 02:00:32;;;;;;;14.98;11.10;;;;;;;;;;4980165;28;20053;-90
2021/06/27 02:02:58;;;;;;;13.77;10.13;;;;;;;;;;4997397;28;20018;-91
2021/06/27 02:05:23;;;;;;;14.30;10.52;;;;;;;;;;4987408;28;20023;-90
2021/06/27 02:07:49;;;;;;;18.08;11.20;;;;;;;;;;4996991;28;20421;-90
2021/06/27 02:10:17;;;;;;;14.88;10.02;;;;;;;;;;4989622;28;20026;-91
2021/06/27 02:12:43;;;;;;;21.45;10.95;;;;;;;;;;5009989;28;20029;-91
2021/06/27 02:15:09;;;;;;;16.42;11.07;;;;;;;;;;4990073;28;20022;-91
2021/06/27 02:17:37;;;;;;;15.18;10.85;;;;;;;;;;4990039;28;20041;-90
2021/06/27 02:20:06;;;;;;;15.93;11.18;;;;;;;;;;4995762;28;20044;-90
2021/06/27 02:22:32;;;;;;;16.60;10.57;;;;;;;;;;4992684;28;20035;-91
2021/06/27 02:24:57;;;;;;;20.58;10.90;;;;;;;;;;4988927;28;20451;-90
2021/06/27 02:27:22;;;;;;;17.10;10.90;;;;;;;;;;4992048;28;20022;-90
2021/06/27 02:29:48;;;;;;;14.82;9.90;;;;;;;;;;4991735;28;20028;-91
2021/06/27 02:32:13;;;;;;;14.38;10.02;;;;;;;;;;4978732;28;20080;-91
2021/06/27 02:34:38;;;;;;;14.35;10.05;;;;;;;;;;4982297;28;20034;-91
2021/06/27 02:37:09;;;;;;;15.45;10.02;;;;;;;;;;4983616;28;20027;-91
2021/06/27 02:39:34;;;;;;;15.35;9.30;;;;;;;;;;4989464;28;20041;-92
2021/06/27 02:41:59;;;;;;;15.88;10.88;;;;;;;;;;4996899;28;20413;-91
2021/06/27 02:44:25;;;;;;;15.85;10.00;;;;;;;;;;4999707;28;20059;-92
2021/06/27 02:46:50;;;;;;;13.43;9.45;;;;;;;;;;4999574;28;20045;-92
2021/06/27 02:49:15;;;;;;;15.23;9.90;;;;;;;;;;5000279;28;20402;-91
2021/06/27 02:51:41;;;;;;;16.42;11.00;;;;;;;;;;5002104;28;20022;-91
2021/06/27 02:54:06;;;;;;;14.00;9.90;;;;;;;;;;4985902;28;20019;-90
2021/06/27 02:56:31;;;;;;;12.73;9.95;;;;;;;;;;5000075;28;20015;-92
2021/06/27 02:58:57;;;;;;;18.50;10.93;;;;;;;;;;4996502;28;20023;-91
2021/06/27 03:01:23;;;;;;;20.90;11.35;;;;;;;;;;4981399;28;20046;-92
2021/06/27 03:03:52;;;;;;;20.77;10.38;;;;;;;;;;4985402;28;20094;-91
2021/06/27 03:06:18;;;;;;;19.45;10.15;;;;;;;;;;5000108;28;20060;-91
2021/06/27 03:08:44;;;;;;;17.98;10.95;;;;;;;;;;4997152;28;20039;-90
2021/06/27 03:11:09;;;;;;;20.92;11.18;;;;;;;;;;4995455;28;20113;-90
2021/06/27 03:13:39;;;;;;;24.23;11.82;;;;;;;;;;4998198;28;21711;-91
2021/06/27 03:16:05;;;;;;;16.95;10.27;;;;;;;;;;4996052;28;20015;-91
2021/06/27 03:18:30;;;;;;;18.42;10.77;;;;;;;;;;4992661;28;20045;-91
2021/06/27 03:20:55;;;;;;;16.83;9.85;;;;;;;;;;4981513;28;20022;-90
2021/06/27 03:23:21;;;;;;;14.27;10.45;;;;;;;;;;4980015;28;20058;-92
2021/06/27 03:25:46;;;;;;;19.08;10.82;;;;;;;;;;4984655;28;20030;-90
2021/06/27 03:28:11;;;;;;;14.93;10.93;;;;;;;;;;4994036;28;20033;-92
2021/06/27 03:30:37;;;;;;;15.07;10.32;;;;;;;;;;4995109;28;20030;-91
2021/06/27 03:33:02;;;;;;;18.83;11.10;;;;;;;;;;4998875;28;20023;-91
2021/06/27 03:35:28;;;;;;;17.02;10.85;;;;;;;;;;4986024;28;20289;-92
2021/06/27 03:40:27;;;;;;;17.42;10.90;;;;;;;;;;4999254;28;20046;-91
2021/06/27 03:42:53;;;;;;;15.13;10.80;;;;;;;;;;4988628;28;20041;-91
2021/06/27 03:45:18;;;;;;;14.90;11.15;;;;;;;;;;4988649;28;20072;-91
2021/06/27 03:47:44;;;;;;;16.58;10.00;;;;;;;;;;4978691;28;20019;-91
2021/06/27 03:50:10;;;;;;;15.38;11.05;;;;;;;;;;4997468;28;20026;-91
2021/06/27 03:52:35;;;;;;;18.70;11.48;;;;;;;;;;4996932;28;20075;-92
2021/06/27 03:55:00;;;;;;;16.95;9.95;;;;;;;;;;4984362;28;20026;-91
2021/06/27 03:57:26;;;;;;;15.70;10.63;;;;;;;;;;4989118;28;20023;-90
2021/06/27 03:59:51;;;;;;;16.58;10.23;;;;;;;;;;4981870;28;20014;-92
2021/06/27 04:02:16;;;;;;;15.35;10.90;;;;;;;;;;4991248;28;20534;-90
2021/06/27 04:04:41;;;;;;;16.02;11.40;;;;;;;;;;4996897;28;20022;-92
2021/06/27 04:07:07;;;;;;;18.70;10.75;;;;;;;;;;4978904;28;20052;-92
2021/06/27 04:09:32;;;;;;;15.75;10.52;;;;;;;;;;4988946;28;20042;-91
2021/06/27 04:11:57;;;;;;;23.10;12.00;;;;;;;;;;5000597;28;20037;-91
2021/06/27 04:14:23;;;;;;;13.93;10.48;;;;;;;;;;4998008;28;20456;-91
2021/06/27 04:16:48;;;;;;;17.35;11.30;;;;;;;;;;4991167;28;20046;-91
2021/06/27 04:19:13;;;;;;;17.48;10.43;;;;;;;;;;4978598;28;20478;-91
2021/06/27 04:21:38;;;;;;;15.18;10.52;;;;;;;;;;4989253;28;20125;-92
2021/06/27 04:24:04;;;;;;;14.02;10.13;;;;;;;;;;4996624;28;20026;-91
2021/06/27 04:26:29;;;;;;;14.45;10.18;;;;;;;;;;4996206;28;20378;-91
2021/06/27 04:28:54;;;;;;;16.30;10.45;;;;;;;;;;4996575;28;20026;-91
2021/06/27 04:31:20;;;;;;;18.20;11.45;;;;;;;;;;4992854;28;20019;-91
2021/06/27 04:33:45;;;;;;;15.73;10.25;;;;;;;;;;4976484;28;20042;-91
2021/06/27 04:36:10;;;;;;;19.85;11.50;;;;;;;;;;4981380;28;20034;-91
2021/06/27 04:38:36;;;;;;;15.68;10.15;;;;;;;;;;4994239;28;20485;-91
2021/06/27 04:41:01;;;;;;;14.27;10.18;;;;;;;;;;4994503;28;20098;-91
2021/06/27 04:43:26;;;;;;;15.70;11.18;;;;;;;;;;4995666;28;20020;-91
2021/06/27 04:45:52;;;;;;;16.60;11.35;;;;;;;;;;4997140;28;20031;-91
2021/06/27 04:48:17;;;;;;;14.82;10.70;;;;;;;;;;4998043;28;20026;-91
2021/06/27 04:50:44;;;;;;;16.13;10.88;;;;;;;;;;4997613;28;20041;-91
2021/06/27 04:53:11;;;;;;;16.10;10.82;;;;;;;;;;4978884;28;20010;-90
2021/06/27 04:55:36;;;;;;;16.63;10.93;;;;;;;;;;4981723;28;20030;-91
2021/06/27 04:58:02;;;;;;;18.98;11.02;;;;;;;;;;4994829;28;20019;-91
2021/06/27 05:00:29;;;;;;;12.82;9.95;;;;;;;;;;4997103;28;20422;-91
2021/06/27 05:02:54;;;;;;;19.33;10.60;;;;;;;;;;4998493;28;20022;-91
2021/06/27 05:05:20;;;;;;;20.80;11.15;;;;;;;;;;4996822;28;20057;-91
2021/06/27 05:07:45;;;;;;;16.15;10.65;;;;;;;;;;4992357;28;20035;-92
2021/06/27 05:10:10;;;;;;;19.33;11.52;;;;;;;;;;4980791;28;20026;-91
2021/06/27 05:12:35;;;;;;;14.27;10.35;;;;;;;;;;4990172;28;20057;-91
2021/06/27 05:15:13;;;;;;;12.57;9.88;;;;;;;;;;4997216;28;20069;-92
2021/06/27 05:17:38;;;;;;;13.88;10.60;;;;;;;;;;4982020;28;20463;-91
2021/06/27 05:20:04;;;;;;;15.27;10.90;;;;;;;;;;4989847;28;20072;-91
2021/06/27 05:22:29;;;;;;;14.00;10.30;;;;;;;;;;4978086;28;20491;-92
2021/06/27 05:24:54;;;;;;;14.48;9.85;;;;;;;;;;4990608;28;20087;-91
2021/06/27 05:27:20;;;;;;;20.83;11.50;;;;;;;;;;4996343;28;20023;-92
2021/06/27 05:29:45;;;;;;;13.35;9.70;;;;;;;;;;4995654;28;20353;-91
2021/06/27 05:32:11;;;;;;;15.23;7.93;;;;;;;;;;4988056;28;20031;-91
2021/06/27 05:34:36;;;;;;;13.60;9.00;;;;;;;;;;4976485;28;20035;-92
2021/06/27 05:37:02;;;;;;;10.82;7.90;;;;;;;;;;4990462;28;20381;-92
2021/06/27 05:39:27;;;;;;;11.60;8.10;;;;;;;;;;4993439;28;20094;-93
2021/06/27 05:41:54;;;;;;;9.93;6.60;;;;;;;;;;4977240;28;20066;-93
2021/06/27 05:44:19;;;;;;;11.77;8.25;;;;;;;;;;4973735;28;20027;-92
2021/06/27 05:46:45;;;;;;;11.80;7.97;;;;;;;;;;4993111;28;20042;-92
2021/06/27 05:49:10;;;;;;;10.20;7.53;;;;;;;;;;5010333;28;20030;-93
2021/06/27 05:51:40;;;;;;;10.85;7.63;;;;;;;;;;4989074;22;20496;-66
2021/06/27 05:54:06;;;;;;;10.93;6.40;;;;;;;;;;4983645;28;20023;-66
2021/06/27 05:56:31;;;;;;;9.85;6.97;;;;;;;;;;4968737;28;20037;-66
2021/06/27 05:58:56;;;;;;;8.23;6.20;;;;;;;;;;4968784;28;20094;-66
2021/06/27 06:01:21;;;;;;;10.93;7.70;;;;;;;;;;4967444;28;20258;-66
2021/06/27 06:03:46;;;;;;;9.70;6.40;;;;;;;;;;4968197;28;20035;-66
2021/06/27 06:06:12;;;;;;;10.73;7.75;;;;;;;;;;4968122;28;20333;-66
2021/06/27 06:08:41;;;;;;;5.57;4.00;;;;;;;;;;4970559;28;20063;-67
2021/06/27 06:11:07;;;;;;;12.30;7.10;;;;;;;;;;4966326;28;20035;-66
2021/06/27 06:13:32;;;;;;;11.52;7.93;;;;;;;;;;4971495;28;20026;-66
2021/06/27 06:15:57;;;;;;;7.70;6.07;;;;;;;;;;4971025;28;20383;-66
2021/06/27 06:18:22;;;;;;;10.13;6.50;;;;;;;;;;4970762;28;20330;-66
2021/06/27 06:20:48;;;;;;;9.17;6.87;;;;;;;;;;4970969;28;20262;-66
2021/06/27 06:23:13;;;;;;;10.33;6.27;;;;;;;;;;4971447;28;20262;-65
2021/06/27 06:25:38;;;;;;;7.93;6.30;;;;;;;;;;4970904;28;20788;-67
2021/06/27 06:28:03;;;;;;;5.35;3.50;;;;;;;;;;4971302;28;20306;-66
2021/06/27 06:30:28;;;;;;;13.02;7.10;;;;;;;;;;4970999;28;20043;-66
2021/06/27 06:32:54;;;;;;;10.37;6.33;;;;;;;;;;4970886;28;20038;-66
2021/06/27 06:35:19;;;;;;;10.10;7.00;;;;;;;;;;4970333;28;20358;-66
2021/06/27 06:37:44;;;;;;;10.67;7.17;;;;;;;;;;4970870;28;20376;-66
2021/06/27 06:40:10;;;;;;;10.67;6.17;;;;;;;;;;4971433;28;20629;-66
2021/06/27 06:42:35;;;;;;;8.52;6.35;;;;;;;;;;4971308;28;20712;-67
2021/06/27 06:45:00;;;;;;;10.80;6.07;;;;;;;;;;4971286;28;20023;-66
2021/06/27 06:47:25;;;;;;;10.37;6.33;;;;;;;;;;4971567;28;20065;-66
2021/06/27 06:49:50;;;;;;;9.07;6.57;;;;;;;;;;4970415;28;20270;-67
2021/06/27 06:52:16;;;;;;;9.63;6.83;;;;;;;;;;4970634;28;20293;-64
2021/06/27 06:54:41;;;;;;;9.95;7.05;;;;;;;;;;4964877;28;20503;-64
2021/06/27 06:57:06;;;;;;;8.60;6.35;;;;;;;;;;4965644;28;20491;-63
2021/06/27 06:59:32;;;;;;;11.48;7.18;;;;;;;;;;4970584;28;20437;-64
2021/06/27 07:01:57;;;;;;;9.52;6.78;;;;;;;;;;4970839;28;20038;-64
2021/06/27 07:04:22;;;;;;;8.13;6.37;;;;;;;;;;4970946;28;20105;-65
2021/06/27 07:06:47;;;;;;;10.65;6.38;;;;;;;;;;4970105;28;20030;-65
2021/06/27 07:09:12;;;;;;;11.30;6.63;;;;;;;;;;4969389;28;20031;-65
2021/06/27 07:11:38;;;;;;;12.07;6.07;;;;;;;;;;4970059;28;20083;-64
2021/06/27 07:14:03;;;;;;;7.83;6.40;;;;;;;;;;4970973;28;20258;-64
2021/06/27 07:16:28;;;;;;;9.50;6.57;;;;;;;;;;4970394;28;20278;-65
2021/06/27 07:18:53;;;;;;;7.25;5.80;;;;;;;;;;4970349;28;20399;-65
2021/06/27 07:21:18;;;;;;;9.85;6.13;;;;;;;;;;4970715;28;20038;-65
2021/06/27 07:23:44;;;;;;;8.90;6.63;;;;;;;;;;4969255;28;20034;-65
2021/06/27 07:26:09;;;;;;;11.33;6.17;;;;;;;;;;4969096;28;20038;-65
2021/06/27 07:28:34;;;;;;;9.75;6.43;;;;;;;;;;4970222;28;20279;-65
2021/06/27 07:30:59;;;;;;;6.27;4.80;;;;;;;;;;4970173;28;20027;-64
2021/06/27 07:33:25;;;;;;;9.77;5.70;;;;;;;;;;4963305;28;20098;-65
2021/06/27 07:35:50;;;;;;;12.52;5.80;;;;;;;;;;4968043;28;20374;-65
2021/06/27 07:38:15;;;;;;;8.93;5.30;;;;;;;;;;4969596;28;20050;-64
2021/06/27 07:40:40;;;;;;;8.43;5.10;;;;;;;;;;4967960;28;20335;-65
2021/06/27 07:43:06;;;;;;;11.95;6.35;;;;;;;;;;4965155;28;20839;-64
2021/06/27 07:45:31;;;;;;;7.90;5.90;;;;;;;;;;4968007;28;20170;-67
2021/06/27 07:47:56;;;;;;;7.78;5.55;;;;;;;;;;4968304;28;20027;-66
2021/06/27 07:50:22;;;;;;;7.17;5.60;;;;;;;;;;4969507;28;20033;-66
2021/06/27 07:52:47;;;;;;;8.33;6.20;;;;;;;;;;4967375;28;20497;-65
2021/06/27 07:55:12;;;;;;;9.83;6.70;;;;;;;;;;4967698;28;20015;-65
2021/06/27 07:57:38;;;;;;;6.57;5.88;;;;;;;;;;4964074;28;20422;-66
2021/06/27 08:00:04;;;;;;;8.13;6.07;;;;;;;;;;4957235;28;20034;-65
2021/06/27 08:02:29;;;;;;;8.60;6.90;;;;;;;;;;4967645;28;20030;-65
2021/06/27 08:04:54;;;;;;;6.70;6.00;;;;;;;;;;4967267;28;20030;-65
2021/06/27 08:07:20;;;;;;;8.13;5.85;;;;;;;;;;4968027;28;20034;-65
2021/06/27 08:09:45;;;;;;;7.40;5.90;;;;;;;;;;4993920;28;20032;-65
2021/06/27 08:12:10;;;;;;;7.90;6.80;;;;;;;;;;4961261;28;20287;-66
2021/06/27 08:14:35;;;;;;;8.07;6.05;;;;;;;;;;4964575;28;20428;-66
2021/06/27 08:17:00;;;;;;;7.00;5.80;;;;;;;;;;4954032;28;20111;-66
2021/06/27 08:19:26;;;;;;;6.45;5.72;;;;;;;;;;4967378;28;20022;-66
2021/06/27 08:21:51;;;;;;;9.55;5.72;;;;;;;;;;4973904;28;20027;-65
2021/06/27 08:24:16;;;;;;;6.60;5.63;;;;;;;;;;4983554;28;20031;-66
2021/06/27 08:26:41;;;;;;;7.30;6.10;;;;;;;;;;4961307;28;20244;-65
2021/06/27 08:29:07;;;;;;;8.33;6.40;;;;;;;;;;4967067;28;20282;-65
2021/06/27 08:31:32;;;;;;;9.32;6.40;;;;;;;;;;4962965;28;20348;-66
2021/06/27 08:33:57;;;;;;;7.43;6.13;;;;;;;;;;4969317;28;20471;-66
2021/06/27 08:36:23;;;;;;;6.97;5.37;;;;;;;;;;4971267;28;20038;-65
2021/06/27 08:38:48;;;;;;;8.52;6.15;;;;;;;;;;4965144;28;20076;-66
2021/06/27 08:41:14;;;;;;;7.83;5.97;;;;;;;;;;4969517;28;20033;-66
2021/06/27 08:43:40;;;;;;;8.52;5.72;;;;;;;;;;4969185;28;20035;-66
2021/06/27 08:46:07;;;;;;;7.05;5.47;;;;;;;;;;4968858;28;20035;-65
2021/06/27 08:48:37;;;;;;;6.18;5.13;;;;;;;;;;4969370;28;20475;-66
2021/06/27 08:51:02;;;;;;;8.95;5.95;;;;;;;;;;4955398;28;20217;-66
2021/06/27 08:53:28;;;;;;;7.82;4.80;;;;;;;;;;4960727;28;20027;-68
2021/06/27 08:56:05;;;;;;;6.43;5.10;;;;;;;;;;4969908;28;20258;-65
2021/06/27 08:58:31;;;;;;;8.13;6.30;;;;;;;;;;4968898;28;20034;-66
2021/06/27 09:00:58;;;;;;;5.43;4.88;;;;;;;;;;4970108;28;20266;-65
2021/06/27 09:03:23;;;;;;;9.57;5.53;;;;;;;;;;4968124;28;20042;-66
2021/06/27 09:05:48;;;;;;;7.27;5.07;;;;;;;;;;4967850;28;20066;-65
2021/06/27 09:08:14;;;;;;;5.90;5.03;;;;;;;;;;4968370;28;20019;-66
2021/06/27 09:10:40;;;;;;;5.63;4.75;;;;;;;;;;4968570;28;20029;-65
2021/06/27 09:13:05;;;;;;;5.82;4.90;;;;;;;;;;4970048;28;20027;-65
2021/06/27 09:15:33;;;;;;;11.10;4.87;;;;;;;;;;4968596;28;20046;-65
2021/06/27 09:17:58;;;;;;;6.70;5.03;;;;;;;;;;4968875;28;20270;-65
2021/06/27 09:20:24;;;;;;;5.73;4.80;;;;;;;;;;4969196;28;20097;-65
2021/06/27 09:22:51;;;;;;;5.75;4.00;;;;;;;;;;4965735;28;20631;-65
2021/06/27 09:25:16;;;;;;;3.90;2.58;;;;;;;;;;4949639;28;20035;-65
2021/06/27 09:27:41;;;;;;;5.07;4.57;;;;;;;;;;4954459;28;20030;-65
2021/06/27 09:30:14;;;;;;;5.30;4.43;;;;;;;;;;4968576;28;20176;-66
2021/06/27 09:32:49;;;;;;;6.82;4.80;;;;;;;;;;4958966;28;20030;-66
2021/06/27 09:35:14;;;;;;;3.97;3.15;;;;;;;;;;4968776;28;20030;-66
2021/06/27 09:37:41;;;;;;;7.27;4.83;;;;;;;;;;4968391;28;20031;-66
2021/06/27 09:40:06;;;;;;;9.10;4.72;;;;;;;;;;4968853;28;20722;-66
2021/06/27 09:42:32;;;;;;;4.63;3.15;;;;;;;;;;4969557;28;20038;-66
2021/06/27 09:45:07;;;;;;;7.20;4.07;;;;;;;;;;4971561;28;20026;-66
2021/06/27 09:47:33;;;;;;;5.40;2.67;;;;;;;;;;4971910;28;20269;-66
2021/06/27 09:49:59;;;;;;;7.70;4.45;;;;;;;;;;4972042;28;20035;-66
2021/06/27 09:52:38;;;;;;;5.35;4.32;;;;;;;;;;4963349;28;20514;-66
2021/06/27 09:55:06;;;;;;;3.95;3.08;;;;;;;;;;4959406;28;20038;-66
2021/06/27 09:57:31;;;;;;;4.30;3.83;;;;;;;;;;5041856;22;20049;-65
2021/06/27 09:59:56;;;;;;;6.63;3.87;;;;;;;;;;5053865;28;20211;-65
2021/06/27 10:02:21;;;;;;;4.30;3.40;;;;;;;;;;5055356;28;20075;-65
2021/06/27 10:04:46;;;;;;;6.37;4.30;;;;;;;;;;5053787;28;20354;-65
2021/06/27 10:07:12;;;;;;;5.47;3.70;;;;;;;;;;5042106;28;20021;-65
2021/06/27 10:09:38;;;;;;;8.53;4.37;;;;;;;;;;5034043;28;20256;-65
2021/06/27 10:12:13;;;;;;;4.57;3.67;;;;;;;;;;5033974;28;20473;-65
2021/06/27 10:14:41;;;;;;;4.78;4.10;;;;;;;;;;5033723;28;20021;-65
2021/06/27 10:17:06;;;;;;;4.90;4.00;;;;;;;;;;5045777;28;20009;-65
2021/06/27 10:19:32;;;;;;;9.23;4.07;;;;;;;;;;5033706;28;20032;-65
2021/06/27 10:21:58;;;;;;;5.25;4.07;;;;;;;;;;5033290;28;20404;-65
2021/06/27 10:24:24;;;;;;;4.93;4.20;;;;;;;;;;5033435;28;20104;-65
2021/06/27 10:26:49;;;;;;;3.72;3.33;;;;;;;;;;5033339;28;20367;-65
2021/06/27 10:29:16;;;;;;;6.47;4.17;;;;;;;;;;5033409;28;20028;-65
2021/06/27 10:31:42;;;;;;;4.50;4.10;;;;;;;;;;5031639;28;20092;-65
2021/06/27 10:34:07;;;;;;;7.05;3.80;;;;;;;;;;5051356;28;20485;-65
2021/06/27 10:36:41;;;;;;;6.30;4.07;;;;;;;;;;5045497;28;20045;-65
2021/06/27 10:39:10;;;;;;;8.32;3.92;;;;;;;;;;5035864;28;20434;-65
2021/06/27 10:41:54;;;;;;;4.78;3.60;;;;;;;;;;5039049;28;20025;-65
2021/06/27 10:44:21;;;;;;;6.78;3.85;;;;;;;;;;5034608;28;20025;-65
2021/06/27 10:46:50;;;;;;;4.72;3.92;;;;;;;;;;5034083;28;20478;-65
2021/06/27 10:49:31;;;;;;;4.47;3.90;;;;;;;;;;5035382;28;20075;-65
2021/06/27 10:51:58;;;;;;;5.65;3.83;;;;;;;;;;5043972;28;20029;-65
2021/06/27 10:54:23;;;;;;;8.82;5.75;;;;;;;;;;5036826;28;20021;-65
2021/06/27 10:57:05;;;;;;;4.73;3.53;;;;;;;;;;5043487;28;20024;-65
2021/06/27 11:00:01;;;;;;;4.60;3.40;;;;;;;;;;5047232;28;20049;-65
2021/06/27 11:02:31;;;;;;;5.30;3.83;;;;;;;;;;5037858;28;20021;-65
2021/06/27 11:05:16;;;;;;;4.88;3.75;;;;;;;;;;5036298;28;20452;-65
2021/06/27 11:07:44;;;;;;;5.97;3.75;;;;;;;;;;5032971;28;20088;-65
2021/06/27 11:10:18;;;;;;;6.20;4.00;;;;;;;;;;5033222;28;20040;-65
2021/06/27 11:13:07;;;;;;;4.60;4.20;;;;;;;;;;5042538;28;20028;-65
2021/06/27 11:15:36;;;;;;;8.98;3.40;;;;;;;;;;5041777;28;20033;-65
2021/06/27 11:18:02;;;;;;;4.95;4.13;;;;;;;;;;5052307;28;20032;-65
2021/06/27 11:20:29;;;;;;;4.05;3.63;;;;;;;;;;5035179;28;20103;-65
2021/06/27 11:22:56;;;;;;;4.90;3.85;;;;;;;;;;5032690;28;20034;-65
2021/06/27 11:25:35;;;;;;;6.63;4.18;;;;;;;;;;5032317;28;20411;-65
2021/06/27 11:28:21;;;;;;;4.90;4.40;;;;;;;;;;5033024;28;20417;-64
2021/06/27 11:30:47;;;;;;;8.07;4.28;;;;;;;;;;5034681;28;20060;-65
2021/06/27 11:33:14;;;;;;;7.90;3.78;;;;;;;;;;5051329;28;20017;-66
2021/06/27 11:35:40;;;;;;;4.55;3.60;;;;;;;;;;5032294;28;20627;-65
2021/06/27 11:38:06;;;;;;;4.82;4.10;;;;;;;;;;5032577;28;20021;-65
2021/06/27 11:40:42;;;;;;;4.18;3.72;;;;;;;;;;5032603;28;20048;-65
2021/06/27 11:43:07;;;;;;;9.85;4.18;;;;;;;;;;5041426;28;20025;-65
2021/06/27 11:45:32;;;;;;;6.88;4.05;;;;;;;;;;5047720;28;20028;-65
2021/06/27 11:47:58;;;;;;;5.20;4.20;;;;;;;;;;5032258;28;20017;-65
2021/06/27 11:50:24;;;;;;;5.47;3.72;;;;;;;;;;5032371;28;20061;-65
2021/06/27 11:52:52;;;;;;;6.10;4.05;;;;;;;;;;5032503;28;20029;-65
2021/06/27 11:55:22;;;;;;;7.70;3.90;;;;;;;;;;5029875;28;20385;-65
2021/06/27 11:57:47;;;;;;;5.53;3.65;;;;;;;;;;5031747;28;20465;-65
2021/06/27 12:00:13;;;;;;;3.67;2.80;;;;;;;;;;5043026;28;20075;-64
2021/06/27 12:02:38;;;;;;;4.95;3.75;;;;;;;;;;5026921;28;20053;-65
2021/06/27 12:05:14;;;;;;;4.70;3.80;;;;;;;;;;5026285;28;20109;-65
2021/06/27 12:07:40;;;;;;;4.47;3.90;;;;;;;;;;5026522;28;20026;-65
2021/06/27 12:10:15;;;;;;;3.90;3.25;;;;;;;;;;5027244;28;20543;-65
2021/06/27 12:12:44;;;;;;;4.28;3.78;;;;;;;;;;5023278;28;20021;-65
2021/06/27 12:15:15;;;;;;;4.53;4.00;;;;;;;;;;5028391;28;20020;-65
2021/06/27 12:17:43;;;;;;;6.95;4.95;;;;;;;;;;5026060;28;20017;-66
2021/06/27 12:20:09;;;;;;;7.97;4.85;;;;;;;;;;5026273;28;20104;-66
2021/06/27 12:22:48;;;;;;;6.07;4.30;;;;;;;;;;5026235;28;20129;-66
2021/06/27 12:25:13;;;;;;;6.03;5.43;;;;;;;;;;5026172;28;20061;-65
2021/06/27 12:27:46;;;;;;;4.30;3.80;;;;;;;;;;5027269;28;20056;-65
2021/06/27 12:30:11;;;;;;;7.30;4.65;;;;;;;;;;5028660;28;20036;-65
2021/06/27 12:32:36;;;;;;;3.08;2.30;;;;;;;;;;5027827;28;20013;-65
2021/06/27 12:35:02;;;;;;;6.07;4.13;;;;;;;;;;5026724;28;20018;-65
2021/06/27 12:37:27;;;;;;;4.40;2.75;;;;;;;;;;5026695;28;20130;-65
2021/06/27 12:39:53;;;;;;;5.07;3.42;;;;;;;;;;5026339;28;20085;-65
2021/06/27 12:42:18;;;;;;;4.88;3.70;;;;;;;;;;5030517;28;20037;-65
2021/06/27 12:44:43;;;;;;;8.38;3.72;;;;;;;;;;5029570;28;20025;-65
2021/06/27 12:47:09;;;;;;;5.23;3.90;;;;;;;;;;5031926;28;20025;-65
2021/06/27 12:49:36;;;;;;;5.28;2.92;;;;;;;;;;5030558;28;20313;-64
2021/06/27 12:52:10;;;;;;;2.80;2.25;;;;;;;;;;5030006;28;20025;-64
2021/06/27 12:54:36;;;;;;;4.80;2.88;;;;;;;;;;5033310;28;20070;-65
2021/06/27 12:57:03;;;;;;;6.45;3.58;;;;;;;;;;5032924;28;20486;-65
2021/06/27 12:59:34;;;;;;;5.30;3.63;;;;;;;;;;5030522;28;20089;-65
2021/06/27 13:02:02;;;;;;;4.97;3.63;;;;;;;;;;5030560;28;20021;-65
2021/06/27 13:04:28;;;;;;;4.55;3.22;;;;;;;;;;5029994;28;20020;-65
2021/06/27 13:06:58;;;;;;;7.32;4.00;;;;;;;;;;5026826;28;20021;-65
2021/06/27 13:09:24;;;;;;;4.00;3.40;;;;;;;;;;5029266;28;20100;-65
2021/06/27 13:12:16;;;;;;;4.18;3.55;;;;;;;;;;5029582;28;20025;-65
2021/06/27 13:14:43;;;;;;;4.68;3.80;;;;;;;;;;5029932;28;20036;-65
2021/06/27 13:17:09;;;;;;;5.75;2.55;;;;;;;;;;5030265;28;20466;-65
2021/06/27 13:19:36;;;;;;;5.90;3.47;;;;;;;;;;5022937;28;20071;-64
2021/06/27 13:22:11;;;;;;;3.65;2.90;;;;;;;;;;5023627;28;20045;-65
2021/06/27 13:24:55;;;;;;;4.25;3.22;;;;;;;;;;5029088;28;20112;-65
2021/06/27 13:27:20;;;;;;;6.30;2.88;;;;;;;;;;5031681;28;20029;-64
2021/06/27 13:30:05;;;;;;;9.43;4.50;;;;;;;;;;5027047;28;20575;-65
2021/06/27 13:32:31;;;;;;;4.82;3.33;;;;;;;;;;5022262;28;20048;-64
2021/06/27 13:34:56;;;;;;;4.53;4.05;;;;;;;;;;5018768;28;20454;-65
2021/06/27 13:37:21;;;;;;;6.97;2.83;;;;;;;;;;5020457;28;20026;-65
2021/06/27 13:39:47;;;;;;;5.38;3.50;;;;;;;;;;5022791;28;20499;-65
2021/06/27 13:42:12;;;;;;;5.15;3.90;;;;;;;;;;5020647;28;20033;-65
2021/06/27 13:44:54;;;;;;;4.25;3.85;;;;;;;;;;5024838;28;20025;-65
2021/06/27 13:47:19;;;;;;;5.13;3.03;;;;;;;;;;5021094;28;20033;-65
2021/06/27 13:49:44;;;;;;;4.07;3.10;;;;;;;;;;5021919;28;20187;-65
2021/06/27 13:52:10;;;;;;;4.25;3.78;;;;;;;;;;5020252;28;20025;-65
2021/06/27 13:54:35;;;;;;;4.30;3.90;;;;;;;;;;5022704;28;20179;-65
2021/06/27 13:57:00;;;;;;;4.00;3.43;;;;;;;;;;5025387;28;20040;-65
2021/06/27 13:59:25;;;;;;;3.67;3.00;;;;;;;;;;5020684;28;20014;-65
2021/06/27 14:01:50;;;;;;;4.53;3.23;;;;;;;;;;5024362;28;20276;-65
2021/06/27 14:04:16;;;;;;;5.73;3.27;;;;;;;;;;5021306;28;20021;-66
2021/06/27 14:06:42;;;;;;;4.60;2.20;;;;;;;;;;5020683;28;20910;-65
2021/06/27 14:09:07;;;;;;;6.37;3.67;;;;;;;;;;5021184;28;20508;-65
2021/06/27 14:11:35;;;;;;;6.30;3.33;;;;;;;;;;5020266;28;20036;-65
2021/06/27 14:14:01;;;;;;;4.30;3.50;;;;;;;;;;5020599;28;20512;-65
2021/06/27 14:16:28;;;;;;;4.10;2.90;;;;;;;;;;5021070;28;20021;-65
2021/06/27 14:18:53;;;;;;;3.58;3.22;;;;;;;;;;5022665;28;20268;-65
2021/06/27 14:21:18;;;;;;;4.95;3.88;;;;;;;;;;5022022;28;20022;-65
2021/06/27 14:23:44;;;;;;;3.03;2.20;;;;;;;;;;5022565;28;20029;-65
2021/06/27 14:26:09;;;;;;;6.13;4.30;;;;;;;;;;5021695;28;20283;-65
2021/06/27 14:28:35;;;;;;;3.80;3.40;;;;;;;;;;5021651;28;20291;-65
2021/06/27 14:31:00;;;;;;;3.33;2.60;;;;;;;;;;5026020;28;20022;-65
2021/06/27 14:33:26;;;;;;;4.70;3.65;;;;;;;;;;5025095;28;20430;-65